Terminal Aerodrome Forecast
Issued by NWS

Home | Current Version | Previous Version | Text Only | Print | Product List | Glossary On
Versions: 1 2 3 4 5 6 7 8 9 10 11 12 13 14 15 16 17
000
FTUS43 KMQT 270500 CCA
TAFCMX
TAF COR
KCMX 270529Z 2706/2806 29006KT P6SM SCT040 BKN100
     FM271000 30010KT P6SM BKN060
     FM271700 31008KT P6SM SCT060=

USA.gov is the U.S. government's official web portal to all federal, state and local government web resources and services.